sensor_id;sensor_type;location;lat;lon;timestamp;temperature;humidity
41592;DHT22;28026;48.562;14.440;2023-06-19T00:01:28;16.40;99.90
41592;DHT22;28026;48.562;14.440;2023-06-19T00:03:59;16.20;99.90
41592;DHT22;28026;48.562;14.440;2023-06-19T00:06:29;16.10;99.90
41592;DHT22;28026;48.562;14.440;2023-06-19T00:09:00;16.20;99.90
41592;DHT22;28026;48.562;14.440;2023-06-19T00:11:31;16.20;99.90
41592;DHT22;28026;48.562;14.440;2023-06-19T00:14:02;16.20;99.90
41592;DHT22;28026;48.562;14.440;2023-06-19T00:16:33;16.20;99.90
41592;DHT22;28026;48.562;14.440;2023-06-19T00:19:03;16.10;99.90
41592;DHT22;28026;48.562;14.440;2023-06-19T00:21:34;16.00;99.90
41592;DHT22;28026;48.562;14.440;2023-06-19T00:24:05;16.00;99.90
41592;DHT22;28026;48.562;14.440;2023-06-19T00:26:36;16.00;99.90
41592;DHT22;28026;48.562;14.440;2023-06-19T00:29:07;15.90;99.90
41592;DHT22;28026;48.562;14.440;2023-06-19T00:31:38;15.90;99.90
41592;DHT22;28026;48.562;14.440;2023-06-19T00:34:08;15.80;99.90
41592;DHT22;28026;48.562;14.440;2023-06-19T00:36:39;15.70;99.90
41592;DHT22;28026;48.562;14.440;2023-06-19T00:39:10;15.70;99.90
41592;DHT22;28026;48.562;14.440;2023-06-19T00:41:41;15.40;99.90
41592;DHT22;28026;48.562;14.440;2023-06-19T00:44:14;15.50;99.90
41592;DHT22;28026;48.562;14.440;2023-06-19T00:46:45;15.40;99.90
41592;DHT22;28026;48.562;14.440;2023-06-19T00:49:16;15.50;99.90
41592;DHT22;28026;48.562;14.440;2023-06-19T00:51:48;15.50;99.90
41592;DHT22;28026;48.562;14.440;2023-06-19T00:54:19;15.40;99.90
41592;DHT22;28026;48.562;14.440;2023-06-19T00:56:50;15.40;99.90
41592;DHT22;28026;48.562;14.440;2023-06-19T00:59:22;15.40;99.90
41592;DHT22;28026;48.562;14.440;2023-06-19T01:01:53;15.30;99.90
41592;DHT22;28026;48.562;14.440;2023-06-19T01:04:24;15.30;99.90
41592;DHT22;28026;48.562;14.440;2023-06-19T01:07:12;15.30;99.90
41592;DHT22;28026;48.562;14.440;2023-06-19T01:09:51;15.30;99.90
41592;DHT22;28026;48.562;14.440;2023-06-19T01:12:33;15.30;99.90
41592;DHT22;28026;48.562;14.440;2023-06-19T01:15:10;15.30;99.90
41592;DHT22;28026;48.562;14.440;2023-06-19T01:17:43;15.30;99.90
41592;DHT22;28026;48.562;14.440;2023-06-19T01:20:17;15.30;99.90
41592;DHT22;28026;48.562;14.440;2023-06-19T01:22:48;15.30;99.90
41592;DHT22;28026;48.562;14.440;2023-06-19T01:25:19;15.30;99.90
41592;DHT22;28026;48.562;14.440;2023-06-19T01:27:50;15.30;99.90
41592;DHT22;28026;48.562;14.440;2023-06-19T01:30:21;15.30;99.90
41592;DHT22;28026;48.562;14.440;2023-06-19T01:35:43;15.10;99.90
41592;DHT22;28026;48.562;14.440;2023-06-19T01:38:19;15.10;99.90
41592;DHT22;28026;48.562;14.440;2023-06-19T01:40:53;15.10;99.90
41592;DHT22;28026;48.562;14.440;2023-06-19T01:43:27;15.10;99.90
41592;DHT22;28026;48.562;14.440;2023-06-19T01:46:01;14.90;99.90
41592;DHT22;28026;48.562;14.440;2023-06-19T01:48:34;14.90;99.90
41592;DHT22;28026;48.562;14.440;2023-06-19T01:51:06;15.00;99.90
41592;DHT22;28026;48.562;14.440;2023-06-19T01:53:37;14.90;99.90
41592;DHT22;28026;48.562;14.440;2023-06-19T01:56:08;14.70;99.90
41592;DHT22;28026;48.562;14.440;2023-06-19T01:58:39;14.30;99.90
41592;DHT22;28026;48.562;14.440;2023-06-19T02:01:09;14.20;99.90
41592;DHT22;28026;48.562;14.440;2023-06-19T02:03:40;14.10;99.90
41592;DHT22;28026;48.562;14.440;2023-06-19T02:06:11;14.20;99.90
41592;DHT22;28026;48.562;14.440;2023-06-19T02:08:42;14.30;99.90
41592;DHT22;28026;48.562;14.440;2023-06-19T02:11:13;14.40;99.90
41592;DHT22;28026;48.562;14.440;2023-06-19T02:13:43;14.50;99.90
41592;DHT22;28026;48.562;14.440;2023-06-19T02:16:14;14.50;99.90
41592;DHT22;28026;48.562;14.440;2023-06-19T02:18:45;14.50;99.90
41592;DHT22;28026;48.562;14.440;2023-06-19T02:21:16;14.40;99.90
41592;DHT22;28026;48.562;14.440;2023-06-19T02:23:47;14.40;99.90
41592;DHT22;28026;48.562;14.440;2023-06-19T02:26:18;14.50;99.90
41592;DHT22;28026;48.562;14.440;2023-06-19T02:28:48;14.50;99.90
41592;DHT22;28026;48.562;14.440;2023-06-19T02:31:19;14.40;99.90
41592;DHT22;28026;48.562;14.440;2023-06-19T02:33:52;14.30;99.90
41592;DHT22;28026;48.562;14.440;2023-06-19T02:36:22;14.20;99.90
41592;DHT22;28026;48.562;14.440;2023-06-19T02:38:53;14.30;99.90
41592;DHT22;28026;48.562;14.440;2023-06-19T02:41:24;14.20;99.90
41592;DHT22;28026;48.562;14.440;2023-06-19T02:43:55;14.30;99.90
41592;DHT22;28026;48.562;14.440;2023-06-19T02:46:25;14.20;99.90
41592;DHT22;28026;48.562;14.440;2023-06-19T02:48:56;14.20;99.90
41592;DHT22;28026;48.562;14.440;2023-06-19T02:51:27;14.10;99.90
41592;DHT22;28026;48.562;14.440;2023-06-19T02:53:58;14.00;99.90
41592;DHT22;28026;48.562;14.440;2023-06-19T02:56:28;13.80;99.90
41592;DHT22;28026;48.562;14.440;2023-06-19T02:58:59;13.90;99.90
41592;DHT22;28026;48.562;14.440;2023-06-19T03:01:30;13.90;99.90
41592;DHT22;28026;48.562;14.440;2023-06-19T03:04:01;14.00;99.90
41592;DHT22;28026;48.562;14.440;2023-06-19T03:06:32;14.00;99.90
41592;DHT22;28026;48.562;14.440;2023-06-19T03:09:09;14.00;99.90
41592;DHT22;28026;48.562;14.440;2023-06-19T03:11:42;14.10;99.90
41592;DHT22;28026;48.562;14.440;2023-06-19T03:14:13;14.20;99.90
41592;DHT22;28026;48.562;14.440;2023-06-19T03:16:44;14.20;99.90
41592;DHT22;28026;48.562;14.440;2023-06-19T03:19:15;14.20;99.90
41592;DHT22;28026;48.562;14.440;2023-06-19T03:21:45;14.30;99.90
41592;DHT22;28026;48.562;14.440;2023-06-19T03:24:16;14.20;99.90
41592;DHT22;28026;48.562;14.440;2023-06-19T03:26:47;14.20;99.90
41592;DHT22;28026;48.562;14.440;2023-06-19T03:29:18;14.10;99.90
41592;DHT22;28026;48.562;14.440;2023-06-19T03:31:48;14.00;99.90
41592;DHT22;28026;48.562;14.440;2023-06-19T03:34:20;14.00;99.90
41592;DHT22;28026;48.562;14.440;2023-06-19T03:36:51;14.10;99.90
41592;DHT22;28026;48.562;14.440;2023-06-19T03:39:22;14.10;99.90
41592;DHT22;28026;48.562;14.440;2023-06-19T03:41:52;14.20;99.90
41592;DHT22;28026;48.562;14.440;2023-06-19T03:44:23;14.20;99.90
41592;DHT22;28026;48.562;14.440;2023-06-19T03:46:54;14.20;99.90
41592;DHT22;28026;48.562;14.440;2023-06-19T03:49:25;14.20;99.90
41592;DHT22;28026;48.562;14.440;2023-06-19T03:51:56;14.30;99.90
41592;DHT22;28026;48.562;14.440;2023-06-19T03:54:26;14.30;99.90
41592;DHT22;28026;48.562;14.440;2023-06-19T03:56:57;14.40;99.90
41592;DHT22;28026;48.562;14.440;2023-06-19T03:59:28;14.50;99.90
41592;DHT22;28026;48.562;14.440;2023-06-19T04:01:58;14.50;99.90
41592;DHT22;28026;48.562;14.440;2023-06-19T04:04:29;14.60;99.90
41592;DHT22;28026;48.562;14.440;2023-06-19T04:07:00;14.60;99.90
41592;DHT22;28026;48.562;14.440;2023-06-19T04:09:31;14.60;99.90
41592;DHT22;28026;48.562;14.440;2023-06-19T04:12:01;14.60;99.90
41592;DHT22;28026;48.562;14.440;2023-06-19T04:14:32;14.50;99.90
41592;DHT22;28026;48.562;14.440;2023-06-19T04:17:03;14.50;99.90
41592;DHT22;28026;48.562;14.440;2023-06-19T04:19:34;14.50;99.90
41592;DHT22;28026;48.562;14.440;2023-06-19T04:22:05;14.70;99.90
41592;DHT22;28026;48.562;14.440;2023-06-19T04:24:36;15.00;99.90
41592;DHT22;28026;48.562;14.440;2023-06-19T04:27:07;15.00;99.90
41592;DHT22;28026;48.562;14.440;2023-06-19T04:29:40;15.20;99.90
41592;DHT22;28026;48.562;14.440;2023-06-19T04:32:11;15.40;99.90
41592;DHT22;28026;48.562;14.440;2023-06-19T04:34:42;15.50;99.90
41592;DHT22;28026;48.562;14.440;2023-06-19T04:37:16;15.60;99.90
41592;DHT22;28026;48.562;14.440;2023-06-19T04:39:49;15.70;99.90
41592;DHT22;28026;48.562;14.440;2023-06-19T04:42:20;15.80;99.90
41592;DHT22;28026;48.562;14.440;2023-06-19T04:44:51;16.00;99.90
41592;DHT22;28026;48.562;14.440;2023-06-19T04:47:23;16.00;99.90
41592;DHT22;28026;48.562;14.440;2023-06-19T04:49:54;16.10;99.90
41592;DHT22;28026;48.562;14.440;2023-06-19T04:52:25;16.40;99.90
41592;DHT22;28026;48.562;14.440;2023-06-19T04:54:56;16.60;99.90
41592;DHT22;28026;48.562;14.440;2023-06-19T04:57:27;16.70;99.90
41592;DHT22;28026;48.562;14.440;2023-06-19T04:59:58;16.80;99.90
41592;DHT22;28026;48.562;14.440;2023-06-19T05:02:28;17.00;99.90
41592;DHT22;28026;48.562;14.440;2023-06-19T05:04:59;17.30;99.90
41592;DHT22;28026;48.562;14.440;2023-06-19T05:07:33;17.10;99.90
41592;DHT22;28026;48.562;14.440;2023-06-19T05:10:04;16.70;99.90
41592;DHT22;28026;48.562;14.440;2023-06-19T05:12:36;16.30;99.90
41592;DHT22;28026;48.562;14.440;2023-06-19T05:15:06;16.50;99.90
41592;DHT22;28026;48.562;14.440;2023-06-19T05:17:38;16.90;99.90
41592;DHT22;28026;48.562;14.440;2023-06-19T05:20:09;17.10;99.90
41592;DHT22;28026;48.562;14.440;2023-06-19T05:22:42;17.30;99.90
41592;DHT22;28026;48.562;14.440;2023-06-19T05:25:12;17.90;99.90
41592;DHT22;28026;48.562;14.440;2023-06-19T05:27:43;18.70;99.90
41592;DHT22;28026;48.562;14.440;2023-06-19T05:30:14;19.10;99.90
41592;DHT22;28026;48.562;14.440;2023-06-19T05:32:45;19.00;99.90
41592;DHT22;28026;48.562;14.440;2023-06-19T05:35:16;19.00;99.90
41592;DHT22;28026;48.562;14.440;2023-06-19T05:37:46;18.80;99.90
41592;DHT22;28026;48.562;14.440;2023-06-19T05:40:18;18.60;99.90
41592;DHT22;28026;48.562;14.440;2023-06-19T05:42:49;18.80;99.90
41592;DHT22;28026;48.562;14.440;2023-06-19T05:45:19;19.00;99.90
41592;DHT22;28026;48.562;14.440;2023-06-19T05:47:50;19.20;99.90
41592;DHT22;28026;48.562;14.440;2023-06-19T05:50:21;19.40;99.90
41592;DHT22;28026;48.562;14.440;2023-06-19T05:52:52;19.70;99.90
41592;DHT22;28026;48.562;14.440;2023-06-19T05:55:22;20.00;99.90
41592;DHT22;28026;48.562;14.440;2023-06-19T05:57:55;20.30;99.90
41592;DHT22;28026;48.562;14.440;2023-06-19T06:00:26;20.50;99.90
41592;DHT22;28026;48.562;14.440;2023-06-19T06:02:57;20.50;99.90
41592;DHT22;28026;48.562;14.440;2023-06-19T06:05:32;20.60;99.90
41592;DHT22;28026;48.562;14.440;2023-06-19T06:08:03;20.90;99.90
41592;DHT22;28026;48.562;14.440;2023-06-19T06:10:34;21.40;99.90
41592;DHT22;28026;48.562;14.440;2023-06-19T06:13:05;22.00;99.90
41592;DHT22;28026;48.562;14.440;2023-06-19T06:15:35;22.30;99.90
41592;DHT22;28026;48.562;14.440;2023-06-19T06:18:06;22.40;99.90
41592;DHT22;28026;48.562;14.440;2023-06-19T06:20:37;22.80;99.90
41592;DHT22;28026;48.562;14.440;2023-06-19T06:23:07;22.70;99.90
41592;DHT22;28026;48.562;14.440;2023-06-19T06:25:38;23.00;99.90
41592;DHT22;28026;48.562;14.440;2023-06-19T06:28:09;22.80;99.90
41592;DHT22;28026;48.562;14.440;2023-06-19T06:30:42;22.10;99.90
41592;DHT22;28026;48.562;14.440;2023-06-19T06:33:12;22.00;99.90
41592;DHT22;28026;48.562;14.440;2023-06-19T06:35:43;21.80;99.90
41592;DHT22;28026;48.562;14.440;2023-06-19T06:38:14;21.80;99.90
41592;DHT22;28026;48.562;14.440;2023-06-19T06:40:45;21.50;99.90
41592;DHT22;28026;48.562;14.440;2023-06-19T06:43:16;21.40;99.90
41592;DHT22;28026;48.562;14.440;2023-06-19T06:45:47;22.30;99.90
41592;DHT22;28026;48.562;14.440;2023-06-19T06:48:18;22.80;99.90
41592;DHT22;28026;48.562;14.440;2023-06-19T06:50:48;23.40;99.90
41592;DHT22;28026;48.562;14.440;2023-06-19T06:53:19;23.60;99.90
41592;DHT22;28026;48.562;14.440;2023-06-19T06:55:50;23.40;99.90
41592;DHT22;28026;48.562;14.440;2023-06-19T06:58:21;23.00;99.90
41592;DHT22;28026;48.562;14.440;2023-06-19T07:00:52;23.50;99.90
41592;DHT22;28026;48.562;14.440;2023-06-19T07:03:23;24.20;99.90
41592;DHT22;28026;48.562;14.440;2023-06-19T07:05:54;24.40;99.90
41592;DHT22;28026;48.562;14.440;2023-06-19T07:08:25;24.80;99.90
41592;DHT22;28026;48.562;14.440;2023-06-19T07:10:55;24.30;99.90
41592;DHT22;28026;48.562;14.440;2023-06-19T07:13:26;25.00;99.90
41592;DHT22;28026;48.562;14.440;2023-06-19T07:15:57;24.80;99.90
41592;DHT22;28026;48.562;14.440;2023-06-19T07:18:29;25.00;99.90
41592;DHT22;28026;48.562;14.440;2023-06-19T07:21:00;25.30;99.90
41592;DHT22;28026;48.562;14.440;2023-06-19T07:23:42;25.30;99.90
41592;DHT22;28026;48.562;14.440;2023-06-19T07:26:17;24.60;99.90
41592;DHT22;28026;48.562;14.440;2023-06-19T07:28:48;24.30;99.90
41592;DHT22;28026;48.562;14.440;2023-06-19T07:31:19;24.30;99.90
41592;DHT22;28026;48.562;14.440;2023-06-19T07:33:49;24.10;99.90
41592;DHT22;28026;48.562;14.440;2023-06-19T07:36:20;24.10;99.90
41592;DHT22;28026;48.562;14.440;2023-06-19T07:38:51;23.90;99.90
41592;DHT22;28026;48.562;14.440;2023-06-19T07:41:22;23.70;99.90
41592;DHT22;28026;48.562;14.440;2023-06-19T07:43:53;23.50;99.90
41592;DHT22;28026;48.562;14.440;2023-06-19T07:46:24;23.10;99.90
41592;DHT22;28026;48.562;14.440;2023-06-19T07:48:55;23.10;99.90
41592;DHT22;28026;48.562;14.440;2023-06-19T07:51:25;23.00;99.90
41592;DHT22;28026;48.562;14.440;2023-06-19T07:53:56;23.00;99.90
41592;DHT22;28026;48.562;14.440;2023-06-19T07:56:27;22.80;99.90
41592;DHT22;28026;48.562;14.440;2023-06-19T07:58:58;22.60;99.90
41592;DHT22;28026;48.562;14.440;2023-06-19T08:01:28;22.70;99.90
41592;DHT22;28026;48.562;14.440;2023-06-19T08:03:59;22.90;99.90
41592;DHT22;28026;48.562;14.440;2023-06-19T08:06:30;22.70;99.90
41592;DHT22;28026;48.562;14.440;2023-06-19T08:09:01;22.80;99.90
41592;DHT22;28026;48.562;14.440;2023-06-19T08:11:32;22.90;99.90
41592;DHT22;28026;48.562;14.440;2023-06-19T08:14:04;22.90;99.90
41592;DHT22;28026;48.562;14.440;2023-06-19T08:16:34;23.00;99.90
41592;DHT22;28026;48.562;14.440;2023-06-19T08:19:05;23.00;99.90
41592;DHT22;28026;48.562;14.440;2023-06-19T08:21:36;23.00;99.90
41592;DHT22;28026;48.562;14.440;2023-06-19T08:24:07;23.20;99.90
41592;DHT22;28026;48.562;14.440;2023-06-19T08:26:37;23.20;99.90
41592;DHT22;28026;48.562;14.440;2023-06-19T08:29:08;23.30;99.90
41592;DHT22;28026;48.562;14.440;2023-06-19T08:31:39;23.20;99.90
41592;DHT22;28026;48.562;14.440;2023-06-19T08:34:10;23.30;99.90
41592;DHT22;28026;48.562;14.440;2023-06-19T08:36:40;23.70;99.90
41592;DHT22;28026;48.562;14.440;2023-06-19T08:39:11;23.90;99.90
41592;DHT22;28026;48.562;14.440;2023-06-19T08:41:42;23.90;99.90
41592;DHT22;28026;48.562;14.440;2023-06-19T08:44:13;23.80;99.90
41592;DHT22;28026;48.562;14.440;2023-06-19T08:46:44;23.80;99.90
41592;DHT22;28026;48.562;14.440;2023-06-19T08:49:15;23.70;99.90
41592;DHT22;28026;48.562;14.440;2023-06-19T08:51:46;23.40;99.90
41592;DHT22;28026;48.562;14.440;2023-06-19T08:54:17;23.30;99.90
41592;DHT22;28026;48.562;14.440;2023-06-19T08:56:48;23.30;99.90
41592;DHT22;28026;48.562;14.440;2023-06-19T08:59:19;23.00;99.90
41592;DHT22;28026;48.562;14.440;2023-06-19T09:01:51;22.80;99.90
41592;DHT22;28026;48.562;14.440;2023-06-19T09:04:25;22.70;99.90
41592;DHT22;28026;48.562;14.440;2023-06-19T09:06:59;22.60;99.90
41592;DHT22;28026;48.562;14.440;2023-06-19T09:09:32;22.70;99.90
41592;DHT22;28026;48.562;14.440;2023-06-19T09:12:04;22.90;99.90
41592;DHT22;28026;48.562;14.440;2023-06-19T09:14:37;23.10;99.90
41592;DHT22;28026;48.562;14.440;2023-06-19T09:17:13;23.30;99.90
41592;DHT22;28026;48.562;14.440;2023-06-19T09:19:50;23.30;99.90
41592;DHT22;28026;48.562;14.440;2023-06-19T09:22:28;23.40;99.90
41592;DHT22;28026;48.562;14.440;2023-06-19T09:25:00;23.30;99.90
41592;DHT22;28026;48.562;14.440;2023-06-19T09:27:33;23.50;99.90
41592;DHT22;28026;48.562;14.440;2023-06-19T09:30:04;23.40;99.90
41592;DHT22;28026;48.562;14.440;2023-06-19T09:32:36;23.50;99.90
41592;DHT22;28026;48.562;14.440;2023-06-19T09:35:07;23.40;99.90
41592;DHT22;28026;48.562;14.440;2023-06-19T09:37:39;23.30;99.90
41592;DHT22;28026;48.562;14.440;2023-06-19T09:40:10;23.40;99.90
41592;DHT22;28026;48.562;14.440;2023-06-19T09:42:42;23.70;99.90
41592;DHT22;28026;48.562;14.440;2023-06-19T09:45:14;24.00;99.90
41592;DHT22;28026;48.562;14.440;2023-06-19T09:47:49;24.10;99.90
41592;DHT22;28026;48.562;14.440;2023-06-19T09:50:24;24.40;99.90
41592;DHT22;28026;48.562;14.440;2023-06-19T09:52:57;25.20;99.90
41592;DHT22;28026;48.562;14.440;2023-06-19T09:55:29;25.90;99.90
41592;DHT22;28026;48.562;14.440;2023-06-19T09:58:01;25.60;99.90
41592;DHT22;28026;48.562;14.440;2023-06-19T10:00:35;26.10;99.90
41592;DHT22;28026;48.562;14.440;2023-06-19T10:03:11;26.00;99.90
41592;DHT22;28026;48.562;14.440;2023-06-19T10:05:43;25.10;99.90
41592;DHT22;28026;48.562;14.440;2023-06-19T10:08:25;25.70;99.90
41592;DHT22;28026;48.562;14.440;2023-06-19T10:10:59;26.50;99.90
41592;DHT22;28026;48.562;14.440;2023-06-19T10:13:31;27.30;99.90
41592;DHT22;28026;48.562;14.440;2023-06-19T10:16:31;27.30;99.90
41592;DHT22;28026;48.562;14.440;2023-06-19T10:19:10;27.00;99.90
41592;DHT22;28026;48.562;14.440;2023-06-19T10:21:47;27.50;99.90
41592;DHT22;28026;48.562;14.440;2023-06-19T10:24:23;28.40;99.90
41592;DHT22;28026;48.562;14.440;2023-06-19T10:26:58;28.00;99.90
41592;DHT22;28026;48.562;14.440;2023-06-19T10:29:40;27.50;99.90
41592;DHT22;28026;48.562;14.440;2023-06-19T10:32:11;27.00;99.90
41592;DHT22;28026;48.562;14.440;2023-06-19T10:34:44;26.80;99.90
41592;DHT22;28026;48.562;14.440;2023-06-19T10:37:31;25.90;99.90
41592;DHT22;28026;48.562;14.440;2023-06-19T10:40:03;26.50;99.90
41592;DHT22;28026;48.562;14.440;2023-06-19T10:42:39;27.40;99.90
41592;DHT22;28026;48.562;14.440;2023-06-19T10:45:11;28.80;99.90
41592;DHT22;28026;48.562;14.440;2023-06-19T10:47:43;27.10;99.90
41592;DHT22;28026;48.562;14.440;2023-06-19T10:50:15;27.90;99.90
41592;DHT22;28026;48.562;14.440;2023-06-19T10:52:46;28.30;99.90
41592;DHT22;28026;48.562;14.440;2023-06-19T10:55:18;28.10;99.90
41592;DHT22;28026;48.562;14.440;2023-06-19T10:57:49;27.90;99.90
41592;DHT22;28026;48.562;14.440;2023-06-19T11:00:24;28.20;99.90
41592;DHT22;28026;48.562;14.440;2023-06-19T11:02:57;28.20;99.90
41592;DHT22;28026;48.562;14.440;2023-06-19T11:05:29;27.30;99.90
41592;DHT22;28026;48.562;14.440;2023-06-19T11:07:59;27.30;99.90
41592;DHT22;28026;48.562;14.440;2023-06-19T11:10:30;27.40;99.90
41592;DHT22;28026;48.562;14.440;2023-06-19T11:13:01;27.50;99.90
41592;DHT22;28026;48.562;14.440;2023-06-19T11:15:33;27.30;99.90
41592;DHT22;28026;48.562;14.440;2023-06-19T11:18:05;26.90;99.90
41592;DHT22;28026;48.562;14.440;2023-06-19T11:20:45;26.30;99.90
41592;DHT22;28026;48.562;14.440;2023-06-19T11:23:25;26.00;99.90
41592;DHT22;28026;48.562;14.440;2023-06-19T11:26:04;25.70;99.90
41592;DHT22;28026;48.562;14.440;2023-06-19T11:28:35;26.60;99.90
41592;DHT22;28026;48.562;14.440;2023-06-19T11:31:06;26.60;99.90
41592;DHT22;28026;48.562;14.440;2023-06-19T11:33:37;27.20;99.90
41592;DHT22;28026;48.562;14.440;2023-06-19T11:36:08;27.40;99.90
41592;DHT22;28026;48.562;14.440;2023-06-19T11:38:39;27.90;99.90
41592;DHT22;28026;48.562;14.440;2023-06-19T11:41:11;29.00;99.30
41592;DHT22;28026;48.562;14.440;2023-06-19T11:43:42;29.40;97.60
41592;DHT22;28026;48.562;14.440;2023-06-19T11:46:12;28.60;96.80
41592;DHT22;28026;48.562;14.440;2023-06-19T11:48:44;28.10;97.00
41592;DHT22;28026;48.562;14.440;2023-06-19T11:51:14;28.30;99.50
41592;DHT22;28026;48.562;14.440;2023-06-19T11:53:45;28.00;98.00
41592;DHT22;28026;48.562;14.440;2023-06-19T11:56:16;29.00;96.70
41592;DHT22;28026;48.562;14.440;2023-06-19T11:58:47;27.90;98.10
41592;DHT22;28026;48.562;14.440;2023-06-19T12:01:18;27.20;98.60
41592;DHT22;28026;48.562;14.440;2023-06-19T12:03:49;28.30;99.10
41592;DHT22;28026;48.562;14.440;2023-06-19T12:06:20;27.90;98.20
41592;DHT22;28026;48.562;14.440;2023-06-19T12:08:51;27.30;98.70
41592;DHT22;28026;48.562;14.440;2023-06-19T12:11:22;28.50;97.60
41592;DHT22;28026;48.562;14.440;2023-06-19T12:13:53;28.40;97.60
41592;DHT22;28026;48.562;14.440;2023-06-19T12:16:24;29.20;98.00
41592;DHT22;28026;48.562;14.440;2023-06-19T12:18:55;29.60;97.90
41592;DHT22;28026;48.562;14.440;2023-06-19T12:21:26;29.50;97.60
41592;DHT22;28026;48.562;14.440;2023-06-19T12:23:57;29.10;97.90
41592;DHT22;28026;48.562;14.440;2023-06-19T12:26:27;29.50;98.20
41592;DHT22;28026;48.562;14.440;2023-06-19T12:28:58;29.60;96.90
41592;DHT22;28026;48.562;14.440;2023-06-19T12:31:29;30.40;97.40
41592;DHT22;28026;48.562;14.440;2023-06-19T12:34:02;30.00;99.70
41592;DHT22;28026;48.562;14.440;2023-06-19T12:36:36;30.10;98.50
41592;DHT22;28026;48.562;14.440;2023-06-19T12:39:07;30.00;98.60
41592;DHT22;28026;48.562;14.440;2023-06-19T12:41:44;29.60;99.10
41592;DHT22;28026;48.562;14.440;2023-06-19T12:44:15;30.60;98.80
41592;DHT22;28026;48.562;14.440;2023-06-19T12:46:47;29.30;99.90
41592;DHT22;28026;48.562;14.440;2023-06-19T12:49:17;28.90;99.90
41592;DHT22;28026;48.562;14.440;2023-06-19T12:51:48;28.90;99.90
41592;DHT22;28026;48.562;14.440;2023-06-19T12:54:22;29.50;99.90
41592;DHT22;28026;48.562;14.440;2023-06-19T12:56:53;30.50;98.80
41592;DHT22;28026;48.562;14.440;2023-06-19T12:59:24;30.20;98.50
41592;DHT22;28026;48.562;14.440;2023-06-19T13:01:55;31.00;99.00
41592;DHT22;28026;48.562;14.440;2023-06-19T13:04:25;30.20;96.70
41592;DHT22;28026;48.562;14.440;2023-06-19T13:06:56;28.90;97.60
41592;DHT22;28026;48.562;14.440;2023-06-19T13:09:27;28.80;97.10
41592;DHT22;28026;48.562;14.440;2023-06-19T13:11:58;28.60;96.10
41592;DHT22;28026;48.562;14.440;2023-06-19T13:14:29;28.80;98.10
41592;DHT22;28026;48.562;14.440;2023-06-19T13:16:59;29.20;95.80
41592;DHT22;28026;48.562;14.440;2023-06-19T13:19:30;29.10;97.80
41592;DHT22;28026;48.562;14.440;2023-06-19T13:22:01;27.90;97.20
41592;DHT22;28026;48.562;14.440;2023-06-19T13:24:32;27.40;96.00
41592;DHT22;28026;48.562;14.440;2023-06-19T13:27:03;27.30;97.70
41592;DHT22;28026;48.562;14.440;2023-06-19T13:29:34;27.80;96.80
41592;DHT22;28026;48.562;14.440;2023-06-19T13:32:05;27.60;95.30
41592;DHT22;28026;48.562;14.440;2023-06-19T13:34:36;27.50;96.30
41592;DHT22;28026;48.562;14.440;2023-06-19T13:37:07;28.40;95.20
41592;DHT22;28026;48.562;14.440;2023-06-19T13:39:38;29.00;94.80
41592;DHT22;28026;48.562;14.440;2023-06-19T13:42:09;29.40;94.70
41592;DHT22;28026;48.562;14.440;2023-06-19T13:44:41;30.10;92.80
41592;DHT22;28026;48.562;14.440;2023-06-19T13:47:12;31.30;94.60
41592;DHT22;28026;48.562;14.440;2023-06-19T13:49:42;32.50;92.90
41592;DHT22;28026;48.562;14.440;2023-06-19T13:52:13;32.20;91.70
41592;DHT22;28026;48.562;14.440;2023-06-19T13:54:44;31.90;93.10
41592;DHT22;28026;48.562;14.440;2023-06-19T13:57:15;32.30;92.80
41592;DHT22;28026;48.562;14.440;2023-06-19T13:59:46;30.40;93.20
41592;DHT22;28026;48.562;14.440;2023-06-19T14:02:19;29.10;95.70
41592;DHT22;28026;48.562;14.440;2023-06-19T14:04:49;29.90;94.00
41592;DHT22;28026;48.562;14.440;2023-06-19T14:07:20;29.80;94.70
41592;DHT22;28026;48.562;14.440;2023-06-19T14:09:53;29.80;95.00
41592;DHT22;28026;48.562;14.440;2023-06-19T14:12:24;29.30;93.80
41592;DHT22;28026;48.562;14.440;2023-06-19T14:14:55;29.40;95.20
41592;DHT22;28026;48.562;14.440;2023-06-19T14:17:26;30.30;94.60
41592;DHT22;28026;48.562;14.440;2023-06-19T14:19:57;31.10;94.30
41592;DHT22;28026;48.562;14.440;2023-06-19T14:22:28;31.20;91.90
41592;DHT22;28026;48.562;14.440;2023-06-19T14:24:59;30.70;92.40
41592;DHT22;28026;48.562;14.440;2023-06-19T14:27:32;30.00;93.50
41592;DHT22;28026;48.562;14.440;2023-06-19T14:30:04;30.00;94.10
41592;DHT22;28026;48.562;14.440;2023-06-19T14:32:36;29.50;93.90
41592;DHT22;28026;48.562;14.440;2023-06-19T14:35:07;29.10;95.00
41592;DHT22;28026;48.562;14.440;2023-06-19T14:37:38;28.90;94.60
41592;DHT22;28026;48.562;14.440;2023-06-19T14:40:09;29.20;94.30
41592;DHT22;28026;48.562;14.440;2023-06-19T14:42:40;29.20;95.30
41592;DHT22;28026;48.562;14.440;2023-06-19T14:45:11;29.10;96.00
41592;DHT22;28026;48.562;14.440;2023-06-19T14:47:42;28.90;95.60
41592;DHT22;28026;48.562;14.440;2023-06-19T14:50:13;27.90;96.10
41592;DHT22;28026;48.562;14.440;2023-06-19T14:52:43;28.00;97.80
41592;DHT22;28026;48.562;14.440;2023-06-19T14:55:14;27.40;97.60
41592;DHT22;28026;48.562;14.440;2023-06-19T14:57:45;26.90;98.70
41592;DHT22;28026;48.562;14.440;2023-06-19T15:00:16;26.60;99.90
41592;DHT22;28026;48.562;14.440;2023-06-19T15:02:47;26.90;97.70
41592;DHT22;28026;48.562;14.440;2023-06-19T15:05:18;26.90;99.90
41592;DHT22;28026;48.562;14.440;2023-06-19T15:07:49;27.10;99.90
41592;DHT22;28026;48.562;14.440;2023-06-19T15:10:20;27.60;97.60
41592;DHT22;28026;48.562;14.440;2023-06-19T15:12:50;27.90;97.90
41592;DHT22;28026;48.562;14.440;2023-06-19T15:15:21;27.20;98.40
41592;DHT22;28026;48.562;14.440;2023-06-19T15:17:53;27.40;99.90
41592;DHT22;28026;48.562;14.440;2023-06-19T15:20:23;27.30;98.00
41592;DHT22;28026;48.562;14.440;2023-06-19T15:22:54;26.90;97.80
41592;DHT22;28026;48.562;14.440;2023-06-19T15:25:25;27.40;97.70
41592;DHT22;28026;48.562;14.440;2023-06-19T15:27:56;28.00;98.50
41592;DHT22;28026;48.562;14.440;2023-06-19T15:30:26;28.90;96.50
41592;DHT22;28026;48.562;14.440;2023-06-19T15:32:57;29.20;95.20
41592;DHT22;28026;48.562;14.440;2023-06-19T15:35:28;29.50;95.40
41592;DHT22;28026;48.562;14.440;2023-06-19T15:37:59;29.80;94.90
41592;DHT22;28026;48.562;14.440;2023-06-19T15:40:29;30.00;94.30
41592;DHT22;28026;48.562;14.440;2023-06-19T15:43:00;30.20;94.80
41592;DHT22;28026;48.562;14.440;2023-06-19T15:45:31;29.90;94.80